createdAt,value
2023-04-20T00:01:57.228Z,98.94
2023-04-20T00:04:36.743Z,100.00
2023-04-20T00:07:11.378Z,100.00
2023-04-20T00:09:51.477Z,100.00
2023-04-20T00:12:24.940Z,100.00
2023-04-20T00:15:04.664Z,100.00
2023-04-20T00:17:38.517Z,100.00
2023-04-20T00:20:18.521Z,100.00
2023-04-20T00:22:59.459Z,100.00
2023-04-20T00:25:33.017Z,100.00
2023-04-20T00:28:06.617Z,100.00
2023-04-20T00:30:47.589Z,100.00
2023-04-20T00:33:27.508Z,97.36
2023-04-20T00:36:08.763Z,96.94
2023-04-20T00:38:49.720Z,99.95
2023-04-20T00:41:29.523Z,100.00
2023-04-20T00:44:03.035Z,100.00
2023-04-20T00:46:42.475Z,100.00
2023-04-20T00:49:22.502Z,100.00
2023-04-20T00:52:03.499Z,100.00
2023-04-20T00:54:39.225Z,99.78
2023-04-20T00:57:20.458Z,100.00
2023-04-20T01:00:00.533Z,98.22
2023-04-20T01:02:40.768Z,100.00
2023-04-20T01:05:20.727Z,100.00
2023-04-20T01:07:55.290Z,100.00
2023-04-20T01:10:37.657Z,99.50
2023-04-20T01:13:17.533Z,99.89
2023-04-20T01:15:57.516Z,100.00
2023-04-20T01:18:48.473Z,98.54
2023-04-20T01:21:22.129Z,98.81
2023-04-20T01:24:02.544Z,99.88
2023-04-20T01:26:42.555Z,98.14
2023-04-20T01:29:22.548Z,95.60
2023-04-20T01:31:56.056Z,93.24
2023-04-20T01:34:35.475Z,98.93
2023-04-20T01:37:15.502Z,93.51
2023-04-20T01:39:57.693Z,93.43
2023-04-20T01:42:37.662Z,91.97
2023-04-20T01:45:11.359Z,94.28
2023-04-20T01:47:50.563Z,96.21
2023-04-20T01:50:24.286Z,97.70
2023-04-20T01:53:03.548Z,97.11
2023-04-20T01:55:39.678Z,100.00
2023-04-20T01:58:20.763Z,97.29
2023-04-20T02:00:54.596Z,97.53
2023-04-20T02:03:34.798Z,100.00
2023-04-20T02:06:08.519Z,100.00
2023-04-20T02:08:48.737Z,99.84
2023-04-20T02:11:23.391Z,100.00
2023-04-20T02:14:03.673Z,99.66
2023-04-20T02:16:37.124Z,99.74
2023-04-20T02:19:17.073Z,99.79
2023-04-20T02:21:56.821Z,100.00
2023-04-20T02:24:36.770Z,100.00
2023-04-20T02:27:17.491Z,100.00
2023-04-20T02:29:50.920Z,100.00
2023-04-20T02:32:30.668Z,100.00
2023-04-20T02:35:04.645Z,100.00
2023-04-20T02:37:44.818Z,100.00
2023-04-20T02:40:24.545Z,100.00
2023-04-20T02:42:59.502Z,100.00
2023-04-20T02:45:40.621Z,100.00
2023-04-20T02:48:20.487Z,100.00
2023-04-20T02:50:55.160Z,100.00
2023-04-20T02:53:39.814Z,100.00
2023-04-20T02:56:26.717Z,100.00
2023-04-20T02:59:12.672Z,100.00
2023-04-20T03:02:12.385Z,100.00
2023-04-20T03:04:52.716Z,100.00
2023-04-20T03:07:27.754Z,100.00
2023-04-20T03:10:07.572Z,100.00
2023-04-20T03:12:50.814Z,100.00
2023-04-20T03:15:39.653Z,100.00
2023-04-20T03:18:45.411Z,100.00
2023-04-20T03:21:25.699Z,100.00
2023-04-20T03:23:59.130Z,100.00
2023-04-20T03:26:38.526Z,100.00
2023-04-20T03:29:22.561Z,100.00
2023-04-20T03:32:04.621Z,100.00
2023-04-20T03:34:37.989Z,100.00
2023-04-20T03:37:17.679Z,100.00
2023-04-20T03:39:58.532Z,100.00
2023-04-20T03:42:38.579Z,100.00
2023-04-20T03:45:18.525Z,100.00
2023-04-20T03:47:53.546Z,100.00
2023-04-20T03:50:34.651Z,100.00
2023-04-20T03:53:08.097Z,100.00
2023-04-20T03:55:47.528Z,100.00
2023-04-20T03:58:21.598Z,100.00
2023-04-20T04:01:24.593Z,100.00
2023-04-20T04:03:59.816Z,100.00
2023-04-20T04:06:39.489Z,100.00
2023-04-20T04:09:13.013Z,100.00
2023-04-20T04:11:52.550Z,100.00
2023-04-20T04:14:35.805Z,100.00
2023-04-20T04:17:11.192Z,100.00
2023-04-20T04:19:53.691Z,100.00
2023-04-20T04:22:30.342Z,100.00
2023-04-20T04:25:34.660Z,100.00
2023-04-20T04:28:10.444Z,100.00
2023-04-20T04:31:00.678Z,100.00
2023-04-20T04:33:35.164Z,100.00
2023-04-20T04:36:16.708Z,100.00
2023-04-20T04:38:57.764Z,100.00
2023-04-20T04:41:31.524Z,100.00
2023-04-20T04:44:39.539Z,100.00
2023-04-20T04:47:24.650Z,100.00
2023-04-20T04:49:57.998Z,100.00
2023-04-20T04:52:39.642Z,100.00
2023-04-20T04:55:19.611Z,100.00
2023-04-20T04:57:52.964Z,100.00
2023-04-20T05:00:32.815Z,100.00
2023-04-20T05:03:12.870Z,100.00
2023-04-20T05:05:46.056Z,100.00
2023-04-20T05:08:27.918Z,100.00
2023-04-20T05:11:01.082Z,100.00
2023-04-20T05:13:40.571Z,100.00
2023-04-20T05:16:20.831Z,100.00
2023-04-20T05:18:54.004Z,100.00
2023-04-20T05:21:33.529Z,100.00
2023-04-20T05:24:08.633Z,100.00
2023-04-20T05:26:48.837Z,100.00
2023-04-20T05:29:22.151Z,100.00
2023-04-20T05:32:01.922Z,100.00
2023-04-20T05:34:35.080Z,100.00
2023-04-20T05:37:14.543Z,100.00
2023-04-20T05:39:49.459Z,100.00
2023-04-20T05:42:29.688Z,100.00
2023-04-20T05:45:09.595Z,100.00
2023-04-20T05:47:57.995Z,100.00
2023-04-20T05:50:37.520Z,100.00
2023-04-20T05:53:17.552Z,100.00
2023-04-20T05:55:52.408Z,100.00
2023-04-20T05:58:32.635Z,100.00
2023-04-20T06:01:06.101Z,100.00
2023-04-20T06:03:45.749Z,100.00
2023-04-20T06:06:25.691Z,100.00
2023-04-20T06:08:59.119Z,100.00
2023-04-20T06:11:39.848Z,100.00
2023-04-20T06:14:13.099Z,100.00
2023-04-20T06:16:52.580Z,100.00
2023-04-20T06:19:26.088Z,100.00
2023-04-20T06:22:05.612Z,100.00
2023-04-20T06:24:39.350Z,100.00
2023-04-20T06:27:07.448Z,100.00
2023-04-20T06:29:34.190Z,100.00
2023-04-20T06:32:01.064Z,100.00
2023-04-20T06:34:27.772Z,100.00
2023-04-20T06:36:54.403Z,100.00
2023-04-20T06:39:21.106Z,100.00
2023-04-20T06:41:47.830Z,100.00
2023-04-20T06:44:16.227Z,100.00
2023-04-20T06:46:42.958Z,100.00
2023-04-20T06:49:09.683Z,100.00
2023-04-20T06:51:36.469Z,100.00
2023-04-20T06:54:03.206Z,100.00
2023-04-20T06:56:29.828Z,100.00
2023-04-20T06:58:56.798Z,100.00
2023-04-20T07:01:24.801Z,100.00
2023-04-20T07:03:51.785Z,100.00
2023-04-20T07:06:18.610Z,100.00
2023-04-20T07:08:45.333Z,100.00
2023-04-20T07:11:12.093Z,100.00
2023-04-20T07:13:39.238Z,100.00
2023-04-20T07:16:06.567Z,100.00
2023-04-20T07:18:35.357Z,100.00
2023-04-20T07:21:02.494Z,100.00
2023-04-20T07:23:29.139Z,100.00
2023-04-20T07:25:55.811Z,100.00
2023-04-20T07:28:22.685Z,100.00
2023-04-20T07:30:49.364Z,100.00
2023-04-20T07:33:16.051Z,100.00
2023-04-20T07:35:44.424Z,100.00
2023-04-20T07:38:11.059Z,100.00
2023-04-20T07:40:37.943Z,100.00
2023-04-20T07:43:04.606Z,100.00
2023-04-20T07:45:31.259Z,100.00
2023-04-20T07:47:57.947Z,100.00
2023-04-20T07:50:24.681Z,100.00
2023-04-20T07:52:52.737Z,100.00
2023-04-20T07:55:19.584Z,100.00
2023-04-20T07:57:46.213Z,100.00
2023-04-20T08:00:14.087Z,100.00
2023-04-20T08:02:41.067Z,100.00
2023-04-20T08:05:08.931Z,100.00
2023-04-20T08:07:35.812Z,100.00
2023-04-20T08:10:04.439Z,100.00
2023-04-20T08:12:31.187Z,100.00
2023-04-20T08:14:57.813Z,100.00
2023-04-20T08:17:24.818Z,100.00
2023-04-20T08:22:18.576Z,100.00
2023-04-20T08:24:45.225Z,100.00
2023-04-20T08:27:13.485Z,100.00
2023-04-20T08:29:40.158Z,100.00
2023-04-20T08:32:06.865Z,100.00
2023-04-20T08:34:33.886Z,100.00
2023-04-20T08:37:00.877Z,100.00
2023-04-20T08:39:27.470Z,100.00
2023-04-20T08:41:54.877Z,100.00
2023-04-20T08:44:23.549Z,100.00
2023-04-20T08:46:51.226Z,100.00
2023-04-20T08:49:19.483Z,100.00
2023-04-20T08:51:47.748Z,100.00
2023-04-20T08:54:15.036Z,100.00
2023-04-20T08:56:43.706Z,100.00
2023-04-20T08:59:11.041Z,100.00
2023-04-20T09:01:39.631Z,100.00
2023-04-20T09:04:16.458Z,100.00
2023-04-20T09:06:44.833Z,100.00
2023-04-20T09:09:11.651Z,100.00
2023-04-20T09:11:38.459Z,100.00
2023-04-20T09:14:06.556Z,100.00
2023-04-20T09:16:33.705Z,100.00
2023-04-20T09:19:02.117Z,100.00
2023-04-20T09:21:29.008Z,100.00
2023-04-20T09:23:56.955Z,100.00
2023-04-20T09:26:23.887Z,100.00
2023-04-20T09:28:50.604Z,100.00
2023-04-20T09:31:18.004Z,100.00
2023-04-20T09:33:45.053Z,100.00
2023-04-20T09:36:13.133Z,100.00
2023-04-20T09:38:40.049Z,100.00
2023-04-20T09:41:07.365Z,100.00
2023-04-20T09:43:35.095Z,100.00
2023-04-20T09:46:03.272Z,100.00
2023-04-20T09:48:32.159Z,100.00
2023-04-20T09:51:02.199Z,100.00
2023-04-20T09:53:31.309Z,100.00
2023-04-20T09:55:58.583Z,100.00
2023-04-20T09:58:25.276Z,100.00
2023-04-20T10:00:51.935Z,100.00
2023-04-20T10:03:19.628Z,100.00
2023-04-20T10:05:46.554Z,100.00
2023-04-20T10:08:13.235Z,100.00
2023-04-20T10:10:45.936Z,100.00
2023-04-20T10:13:12.890Z,100.00
2023-04-20T10:15:40.609Z,100.00
2023-04-20T10:18:18.740Z,100.00
2023-04-20T10:20:46.052Z,100.00
2023-04-20T10:23:13.062Z,100.00
2023-04-20T10:25:40.236Z,100.00
2023-04-20T10:28:08.440Z,100.00
2023-04-20T10:30:36.174Z,100.00
2023-04-20T10:33:04.346Z,100.00
2023-04-20T10:35:43.352Z,100.00
2023-04-20T10:38:12.396Z,100.00
2023-04-20T10:40:39.236Z,100.00
2023-04-20T10:43:18.207Z,100.00
2023-04-20T10:45:44.820Z,100.00
2023-04-20T10:48:11.679Z,100.00
2023-04-20T10:50:38.624Z,100.00
2023-04-20T10:53:05.479Z,100.00
2023-04-20T10:55:32.120Z,100.00
2023-04-20T10:57:58.991Z,100.00
2023-04-20T11:00:28.533Z,100.00
2023-04-20T11:02:56.974Z,100.00
2023-04-20T11:05:25.547Z,100.00
2023-04-20T11:07:52.728Z,100.00
2023-04-20T11:10:20.056Z,100.00
2023-04-20T11:12:46.743Z,100.00
2023-04-20T11:15:13.676Z,100.00
2023-04-20T11:17:41.984Z,100.00
2023-04-20T11:20:10.649Z,100.00
2023-04-20T11:22:37.769Z,100.00
2023-04-20T11:25:05.054Z,100.00
2023-04-20T11:27:32.125Z,100.00
2023-04-20T11:29:59.011Z,98.28
2023-04-20T11:32:26.976Z,93.74
2023-04-20T11:35:07.024Z,89.60
2023-04-20T11:37:34.757Z,75.03
2023-04-20T11:40:02.256Z,81.21
2023-04-20T11:42:28.836Z,75.54
2023-04-20T11:44:56.083Z,100.00
2023-04-20T11:47:22.822Z,100.00
2023-04-20T11:49:49.727Z,100.00
2023-04-20T11:52:17.834Z,100.00
2023-04-20T11:54:44.515Z,100.00
2023-04-20T11:57:12.037Z,100.00
2023-04-20T11:59:38.799Z,100.00
2023-04-20T12:02:05.738Z,100.00
2023-04-20T12:04:32.961Z,100.00
2023-04-20T12:07:00.612Z,100.00
2023-04-20T12:09:28.921Z,100.00
2023-04-20T12:11:56.041Z,100.00
2023-04-20T12:14:22.704Z,100.00
2023-04-20T12:16:49.454Z,100.00
2023-04-20T12:19:16.380Z,100.00
2023-04-20T12:21:45.918Z,100.00
2023-04-20T12:24:12.582Z,100.00
2023-04-20T12:26:40.638Z,100.00
2023-04-20T12:29:07.462Z,100.00
2023-04-20T12:31:34.264Z,100.00
2023-04-20T12:34:00.921Z,100.00
2023-04-20T12:36:27.767Z,100.00
2023-04-20T12:38:54.420Z,100.00
2023-04-20T12:41:21.192Z,100.00
2023-04-20T12:43:49.254Z,100.00
2023-04-20T12:46:16.090Z,100.00
2023-04-20T12:48:42.900Z,100.00
2023-04-20T12:51:09.618Z,100.00
2023-04-20T12:53:36.182Z,100.00
2023-04-20T12:56:03.013Z,100.00
2023-04-20T12:58:29.695Z,100.00
2023-04-20T13:00:57.873Z,100.00
2023-04-20T13:03:25.477Z,100.00
2023-04-20T13:05:52.195Z,100.00
2023-04-20T13:08:18.812Z,100.00
2023-04-20T13:10:45.648Z,100.00
2023-04-20T13:13:12.388Z,100.00
2023-04-20T13:15:39.753Z,100.00
2023-04-20T13:18:08.093Z,100.00
2023-04-20T13:20:34.830Z,100.00
2023-04-20T13:23:01.818Z,100.00
2023-04-20T13:25:30.278Z,100.00
2023-04-20T13:27:57.336Z,100.00
2023-04-20T13:30:24.709Z,84.85
2023-04-20T13:32:51.623Z,69.51
2023-04-20T13:35:19.879Z,70.66
2023-04-20T13:37:46.525Z,69.65
2023-04-20T13:40:13.714Z,69.55
2023-04-20T13:42:40.607Z,64.95
2023-04-20T13:45:08.749Z,83.61
2023-04-20T13:47:35.718Z,88.33
2023-04-20T13:50:02.376Z,83.51
2023-04-20T13:52:30.560Z,94.82
2023-04-20T13:54:57.247Z,96.14
2023-04-20T13:57:24.003Z,100.00
2023-04-20T13:59:50.719Z,100.00
2023-04-20T14:02:17.497Z,93.75
2023-04-20T14:04:44.233Z,91.06
2023-04-20T14:07:11.525Z,75.39
2023-04-20T14:09:40.300Z,69.56
2023-04-20T14:12:07.096Z,91.95
2023-04-20T14:14:33.839Z,92.18
2023-04-20T14:17:00.483Z,100.00
2023-04-20T14:19:27.166Z,100.00
2023-04-20T14:21:53.808Z,100.00
2023-04-20T14:24:20.561Z,100.00
2023-04-20T14:26:50.474Z,100.00
2023-04-20T14:29:17.532Z,100.00
2023-04-20T14:31:44.265Z,100.00
2023-04-20T14:34:11.013Z,100.00
2023-04-20T14:36:37.688Z,100.00
2023-04-20T14:39:04.376Z,68.02
2023-04-20T14:41:33.563Z,54.91
2023-04-20T14:44:01.743Z,43.05
2023-04-20T14:46:28.688Z,44.12
2023-04-20T14:48:55.361Z,41.62
2023-04-20T14:51:22.036Z,39.66
2023-04-20T14:53:48.689Z,38.56
2023-04-20T14:56:15.252Z,39.30
2023-04-20T14:58:41.938Z,38.57
2023-04-20T15:01:10.029Z,41.25
2023-04-20T15:03:36.848Z,46.52
2023-04-20T15:06:04.024Z,52.98
2023-04-20T15:08:30.728Z,53.07
2023-04-20T15:10:57.408Z,48.59
2023-04-20T15:13:24.840Z,46.30
2023-04-20T15:15:54.127Z,44.01
2023-04-20T15:18:23.185Z,44.46
2023-04-20T15:20:51.373Z,41.58
2023-04-20T15:23:18.118Z,41.86
2023-04-20T15:25:45.001Z,41.33
2023-04-20T15:28:11.761Z,46.88
2023-04-20T15:30:38.475Z,52.17
2023-04-20T15:33:05.913Z,60.00
2023-04-20T15:35:34.929Z,49.09
2023-04-20T15:38:01.793Z,48.73
2023-04-20T15:40:28.478Z,49.99
2023-04-20T15:42:55.286Z,50.69
2023-04-20T15:45:21.930Z,52.95
2023-04-20T15:47:48.779Z,52.78
2023-04-20T15:50:16.102Z,58.08
2023-04-20T15:52:44.343Z,99.52
2023-04-20T15:55:10.969Z,100.00
2023-04-20T15:57:37.749Z,100.00
2023-04-20T16:00:05.534Z,100.00
2023-04-20T16:02:37.021Z,100.00
2023-04-20T16:05:04.418Z,100.00
2023-04-20T16:07:31.372Z,100.00
2023-04-20T16:10:00.303Z,100.00
2023-04-20T16:12:27.041Z,100.00
2023-04-20T16:14:53.935Z,100.00
2023-04-20T16:17:20.773Z,100.00
2023-04-20T16:19:47.847Z,100.00
2023-04-20T16:22:14.570Z,100.00
2023-04-20T16:24:41.254Z,100.00
2023-04-20T16:27:09.480Z,97.88
2023-04-20T16:29:36.172Z,100.00
2023-04-20T16:32:02.931Z,100.00
2023-04-20T16:34:29.729Z,99.78
2023-04-20T16:36:56.607Z,100.00
2023-04-20T16:39:23.298Z,97.89
2023-04-20T16:41:50.363Z,94.22
2023-04-20T16:44:18.585Z,100.00
2023-04-20T16:46:48.205Z,98.63
2023-04-20T16:49:15.049Z,100.00
2023-04-20T16:51:41.758Z,93.40
2023-04-20T16:54:08.445Z,96.71
2023-04-20T16:56:35.186Z,100.00
2023-04-20T16:59:01.896Z,98.31
2023-04-20T17:01:30.111Z,95.56
2023-04-20T17:03:56.867Z,92.66
2023-04-20T17:06:23.868Z,99.17
2023-04-20T17:08:50.563Z,98.43
2023-04-20T17:11:17.158Z,96.96
2023-04-20T17:13:43.842Z,99.84
2023-04-20T17:16:10.695Z,96.60
2023-04-20T17:18:41.194Z,93.31
2023-04-20T17:21:08.523Z,93.19
2023-04-20T17:23:35.232Z,93.90
2023-04-20T17:26:02.780Z,96.81
2023-04-20T17:28:29.531Z,96.45
2023-04-20T17:30:56.248Z,96.87
2023-04-20T17:33:22.935Z,96.62
2023-04-20T17:35:51.126Z,97.22
2023-04-20T17:38:17.988Z,96.31
2023-04-20T17:40:44.646Z,96.55
2023-04-20T17:43:11.333Z,96.38
2023-04-20T17:45:38.288Z,94.70
2023-04-20T17:48:05.554Z,95.70
2023-04-20T17:50:33.359Z,95.10
2023-04-20T17:53:01.433Z,98.86
2023-04-20T17:55:28.427Z,100.00
2023-04-20T17:57:55.330Z,100.00
2023-04-20T18:00:22.022Z,100.00
2023-04-20T18:02:48.688Z,100.00
2023-04-20T18:05:15.325Z,100.00
2023-04-20T18:07:41.931Z,100.00
2023-04-20T18:10:11.346Z,100.00
2023-04-20T18:12:37.971Z,100.00
2023-04-20T18:15:07.617Z,100.00
2023-04-20T18:17:35.042Z,100.00
2023-04-20T18:20:01.747Z,100.00
2023-04-20T18:22:28.456Z,100.00
2023-04-20T18:24:55.048Z,100.00
2023-04-20T18:27:22.957Z,100.00
2023-04-20T18:29:49.628Z,100.00
2023-04-20T18:32:16.203Z,100.00
2023-04-20T18:34:42.853Z,100.00
2023-04-20T18:37:09.497Z,100.00
2023-04-20T18:39:36.061Z,100.00
2023-04-20T18:42:02.662Z,100.00
2023-04-20T18:44:30.660Z,100.00
2023-04-20T18:46:58.563Z,100.00
2023-04-20T18:49:25.315Z,100.00
2023-04-20T18:51:52.004Z,100.00
2023-04-20T18:54:18.954Z,100.00
2023-04-20T18:56:45.729Z,100.00
2023-04-20T18:59:12.418Z,100.00
2023-04-20T19:01:40.572Z,100.00
2023-04-20T19:04:08.053Z,100.00
2023-04-20T19:06:35.092Z,100.00
2023-04-20T19:09:01.711Z,100.00
2023-04-20T19:11:31.212Z,100.00
2023-04-20T19:13:57.831Z,100.00
2023-04-20T19:16:24.600Z,100.00
2023-04-20T19:18:52.505Z,100.00
2023-04-20T19:21:20.976Z,100.00
2023-04-20T19:23:48.615Z,100.00
2023-04-20T19:26:15.689Z,100.00
2023-04-20T19:28:42.484Z,100.00
2023-04-20T19:31:09.271Z,100.00
2023-04-20T19:33:35.865Z,100.00
2023-04-20T19:36:04.516Z,100.00
2023-04-20T19:38:31.101Z,100.00
2023-04-20T19:40:57.673Z,100.00
2023-04-20T19:43:24.291Z,100.00
2023-04-20T19:45:50.877Z,100.00
2023-04-20T19:48:17.560Z,100.00
2023-04-20T19:50:44.214Z,100.00
2023-04-20T19:53:12.169Z,100.00
2023-04-20T19:55:38.780Z,100.00
2023-04-20T19:58:05.575Z,100.00
2023-04-20T20:00:32.209Z,100.00
2023-04-20T20:02:58.919Z,100.00
2023-04-20T20:05:25.586Z,100.00
2023-04-20T20:07:52.160Z,100.00
2023-04-20T20:10:20.196Z,100.00
2023-04-20T20:12:46.970Z,100.00
2023-04-20T20:15:13.795Z,100.00
2023-04-20T20:17:40.462Z,100.00
2023-04-20T20:20:07.951Z,100.00
2023-04-20T20:22:34.585Z,100.00
2023-04-20T20:25:01.160Z,100.00
2023-04-20T20:27:29.266Z,100.00
2023-04-20T20:29:55.905Z,100.00
2023-04-20T20:32:22.662Z,100.00
2023-04-20T20:34:49.358Z,100.00
2023-04-20T20:37:15.974Z,100.00
2023-04-20T20:39:42.617Z,100.00
2023-04-20T20:42:09.271Z,100.00
2023-04-20T20:44:37.384Z,100.00
2023-04-20T20:47:04.872Z,100.00
2023-04-20T20:49:31.636Z,100.00
2023-04-20T20:51:58.178Z,100.00
2023-04-20T20:54:24.881Z,100.00
2023-04-20T20:56:51.539Z,100.00
2023-04-20T20:59:18.357Z,100.00
2023-04-20T21:01:46.592Z,100.00
2023-04-20T21:04:13.410Z,100.00
2023-04-20T21:06:40.045Z,100.00
2023-04-20T21:09:06.655Z,100.00
2023-04-20T21:11:33.196Z,100.00
2023-04-20T21:13:59.813Z,100.00
2023-04-20T21:16:26.376Z,100.00
2023-04-20T21:18:54.391Z,100.00
2023-04-20T21:21:20.902Z,100.00
2023-04-20T21:23:47.491Z,100.00
2023-04-20T21:26:14.117Z,100.00
2023-04-20T21:28:40.676Z,100.00
2023-04-20T21:31:07.250Z,100.00
2023-04-20T21:33:34.461Z,100.00
2023-04-20T21:36:02.462Z,100.00
2023-04-20T21:38:29.080Z,100.00
2023-04-20T21:40:55.617Z,100.00
2023-04-20T21:43:22.199Z,100.00
2023-04-20T21:45:48.832Z,100.00
2023-04-20T21:48:15.438Z,100.00
2023-04-20T21:50:41.996Z,100.00
2023-04-20T21:53:10.156Z,100.00
2023-04-20T21:55:36.681Z,100.00
2023-04-20T21:58:03.648Z,100.00
2023-04-20T22:00:30.273Z,100.00
2023-04-20T22:02:56.978Z,100.00
2023-04-20T22:05:23.862Z,100.00
2023-04-20T22:07:50.428Z,100.00
2023-04-20T22:10:18.479Z,100.00
2023-04-20T22:12:45.074Z,100.00
2023-04-20T22:15:13.811Z,100.00
2023-04-20T22:17:40.717Z,100.00
2023-04-20T22:20:09.881Z,100.00
2023-04-20T22:22:37.574Z,100.00
2023-04-20T22:25:05.061Z,100.00
2023-04-20T22:27:34.067Z,100.00
2023-04-20T22:30:00.741Z,100.00
2023-04-20T22:32:27.648Z,100.00
2023-04-20T22:34:54.372Z,100.00
2023-04-20T22:37:20.988Z,100.00
2023-04-20T22:39:47.524Z,100.00
2023-04-20T22:42:14.087Z,100.00
2023-04-20T22:44:41.995Z,100.00
2023-04-20T22:47:08.701Z,100.00
2023-04-20T22:49:35.497Z,100.00
2023-04-20T22:52:02.040Z,100.00
2023-04-20T22:54:29.619Z,100.00
2023-04-20T22:56:56.353Z,100.00
2023-04-20T22:59:22.952Z,100.00
2023-04-20T23:01:50.845Z,100.00
2023-04-20T23:04:17.728Z,100.00
2023-04-20T23:06:44.293Z,100.00
2023-04-20T23:09:11.040Z,100.00
2023-04-20T23:11:37.625Z,100.00
2023-04-20T23:14:04.328Z,100.00
2023-04-20T23:16:30.892Z,100.00
2023-04-20T23:18:58.789Z,100.00
2023-04-20T23:21:25.404Z,100.00
2023-04-20T23:23:51.961Z,100.00
2023-04-20T23:26:18.589Z,100.00
2023-04-20T23:28:45.164Z,100.00
2023-04-20T23:31:11.735Z,100.00
2023-04-20T23:33:38.274Z,100.00
2023-04-20T23:36:07.164Z,100.00
2023-04-20T23:38:33.810Z,100.00
2023-04-20T23:41:00.398Z,100.00
2023-04-20T23:43:27.064Z,100.00
2023-04-20T23:45:53.779Z,100.00
2023-04-20T23:48:20.387Z,100.00
2023-04-20T23:50:48.637Z,100.00
2023-04-20T23:53:16.630Z,100.00
2023-04-20T23:55:45.553Z,100.00
2023-04-20T23:58:12.154Z,100.00
